Buoy 32622

sailwx.info

Track history (hours):
 
Tides and Currents Weather Stations Pressure Air Temp Water Temp Dewpoint Dewpoint Depression Visibility Wind Speed Wind Dir Waves Ship Positions

Aadnyj

Last reported at 2017-Nov-23 15:00 UTC. Time now 2017-Nov-23 18:12 UTC.
Position S 15°17' E 176°50'.

Length 56 m.

Type: Towing. MMSI: 413600286.

Water temperature 28.3 ° C

Date/timePositionNaut miles runAvg speedWind from/ knotsBaromVisibWave heightAir tempDewpointWater temp
2017-Nov-23 15:00S 15°17' E 176°50'1 0.3 28.3
2017-Nov-23 11:00S 15°17' E 176°52'0 0.0 28.3
2017-Nov-23 10:00S 15°17' E 176°52'0 0.0 28.3
2017-Nov-23 09:00S 15°17' E 176°52'3 3.0 28.3
2017-Nov-23 08:00S 15°17' E 176°55'0 0.0 28.3
2017-Nov-23 07:00S 15°17' E 176°55'1 0.6 28.3
2017-Nov-23 05:00S 15°17' E 176°53'3 2.5 28.3
2017-Nov-23 04:00S 15°19' E 176°55'0 0.0 28.3
2017-Nov-23 03:00S 15°19' E 176°55'0 0.0 28.3
2017-Nov-23 02:00S 15°19' E 176°55'0 0.0 28.3
2017-Nov-23 01:00S 15°19' E 176°55'3 0.8 28.3
2017-Nov-22 21:00S 15°22' E 176°58'1 0.6 28.2
2017-Nov-22 20:00S 15°22' E 176°57'0 0.0 28.3
2017-Nov-22 19:00S 15°22' E 176°57'2 1.8 28.3
2017-Nov-22 18:00S 15°21' E 176°59'1 0.8 28.3
2017-Nov-22 17:00S 15°20' E 176°58'1 0.8 28.3
2017-Nov-22 16:00S 15°21' E 176°59'1 1.2 28.3
2017-Nov-22 15:00S 15°20' E 176°59'0 0.0 28.3
2017-Nov-22 14:00S 15°20' E 176°59'0 0.0 28.3
2017-Nov-22 13:00S 15°20' E 176°59'2 0.6 28.3
2017-Nov-22 10:00S 15°20' E 177°01'4 3.8 28.3
2017-Nov-22 09:00S 15°17' E 177°03'0 0.0 28.3
2017-Nov-22 08:00S 15°17' E 177°03'0 0.0 28.3
2017-Nov-22 07:00S 15°17' E 177°03'0 0.0 28.3
2017-Nov-22 06:00S 15°17' E 177°03'0 0.0 28.3
2017-Nov-22 05:00S 15°17' E 177°03'2 1.8 28.4
2017-Nov-22 04:00S 15°17' E 177°05'0 0.0 28.4
2017-Nov-22 03:00S 15°17' E 177°05'0 0.0 28.3
2017-Nov-22 02:00S 15°17' E 177°05'4 0.9 28.3
2017-Nov-21 22:00S 15°17' E 177°08'2 2.3 28.4
2017-Nov-21 21:00S 15°17' E 177°11'1 0.6 28.5
2017-Nov-21 20:00S 15°17' E 177°11'0 0.0 28.6
2017-Nov-21 19:00S 15°17' E 177°11'3 1.6 28.6
2017-Nov-21 17:00S 15°16' E 177°14'0 0.0 28.7
2017-Nov-21 16:00S 15°16' E 177°14'1 0.3 28.8
2017-Nov-21 14:00S 15°16' E 177°14'0 0.0 28.8
2017-Nov-21 13:00S 15°16' E 177°14'3 1.0 28.8
2017-Nov-21 10:00S 15°15' E 177°17'4 4.1 28.7
2017-Nov-21 09:00S 15°16' E 177°21'0 0.0 28.7
2017-Nov-21 07:00S 15°16' E 177°21'0 0.0 28.7
2017-Nov-21 06:00S 15°16' E 177°21'1 1.3 28.8
2017-Nov-21 05:00S 15°15' E 177°20'1 0.8 28.8
2017-Nov-21 04:00S 15°16' E 177°19'1 1.3 28.8
2017-Nov-21 03:00S 15°16' E 177°20'3 0.5 28.8
2017-Nov-20 21:00S 15°16' E 177°23'1 0.7 28.7
2017-Nov-20 19:00S 15°16' E 177°25'1 0.8 28.7
2017-Nov-20 18:00S 15°16' E 177°25'1 0.7 28.7
2017-Nov-20 16:00S 15°14' E 177°26'0 0.0 28.7
2017-Nov-20 15:00S 15°14' E 177°26'0 0.0 28.7
2017-Nov-20 14:00S 15°14' E 177°26'0 0.0 28.8
2017-Nov-20 13:00S 15°14' E 177°26'4 1.8 28.9
2017-Nov-20 11:00S 15°13' E 177°29'0 0.0 28.9
2017-Nov-20 10:00S 15°13' E 177°29'1 1.3 28.9
2017-Nov-20 09:00S 15°13' E 177°31'3 3.1 28.8
2017-Nov-20 08:00S 15°11' E 177°34'0 0.0 28.8
2017-Nov-20 07:00S 15°11' E 177°34'0 0.0 28.8
2017-Nov-20 06:00S 15°11' E 177°34'1 1.3 29.0
2017-Nov-20 05:00S 15°11' E 177°35'2 1.7 29.1
2017-Nov-20 04:00S 15°11' E 177°37'1 0.8 29.0
2017-Nov-20 03:00S 15°11' E 177°36'0 0.0 29.6
2017-Nov-20 02:00S 15°11' E 177°36'7 1.7 29.4
2017-Nov-19 22:00S 15°11' E 177°43'1 1.2 28.7
2017-Nov-19 21:00S 15°11' E 177°44'0 0.0 28.6
2017-Nov-19 20:00S 15°11' E 177°44'5 4.6 28.6
2017-Nov-19 19:00S 15°14' E 177°48'0 0.0 28.6
2017-Nov-19 18:00S 15°14' E 177°48'2 0.8 28.6
2017-Nov-19 16:00S 15°16' E 177°49'0 0.0 28.7
2017-Nov-19 14:00S 15°16' E 177°49'5 1.3 28.7
2017-Nov-19 10:00S 15°20' E 177°52'1 0.6 28.8
2017-Nov-19 09:00S 15°20' E 177°52'2 1.7 28.8
2017-Nov-19 08:00S 15°22' E 177°51'0 0.0 28.9
2017-Nov-19 07:00S 15°22' E 177°51'0 0.0 29.1
2017-Nov-19 06:00S 15°22' E 177°51'1 1.3 28.9
2017-Nov-19 05:00S 15°23' E 177°52'0 0.0 29.1
2017-Nov-19 04:00S 15°23' E 177°52'1 0.6 29.2
2017-Nov-19 03:00S 15°23' E 177°51'6 1.1 29.4
2017-Nov-18 22:00S 15°26' E 177°56'1 0.4 28.9
2017-Nov-18 20:00S 15°26' E 177°55'2 1.9 28.6
2017-Nov-18 19:00S 15°28' E 177°56'1 1.3 28.6
2017-Nov-18 18:00S 15°28' E 177°57'1 0.8 28.6
2017-Nov-18 17:00S 15°28' E 177°58'0 0.0 28.7
2017-Nov-18 16:00S 15°28' E 177°58'1 0.7 28.7
2017-Nov-18 14:00S 15°29' E 177°58'3 0.9 28.7
2017-Nov-18 10:00S 15°32' E 178°00'1 1.2 28.6
2017-Nov-18 09:00S 15°32' E 178°01'1 1.2 28.6
2017-Nov-18 08:00S 15°34' E 178°01'0 0.0 28.6
2017-Nov-18 07:00S 15°34' E 178°01'1 0.6 28.6
2017-Nov-18 06:00S 15°33' E 178°01'1 1.2 28.7
2017-Nov-18 05:00S 15°33' E 178°02'1 0.6 28.8
2017-Nov-18 04:00S 15°34' E 178°02'1 1.2 29.0
2017-Nov-18 03:00S 15°34' E 178°01'2 0.5 29.6
2017-Nov-17 22:00S 15°36' E 178°02'1 0.7 28.6
2017-Nov-17 20:00S 15°37' E 178°02'0 0.0 28.5
2017-Nov-17 19:00S 15°37' E 178°02'1 0.6 28.4
2017-Nov-17 18:00S 15°37' E 178°02'0 0.0 28.4
2017-Nov-17 17:00S 15°37' E 178°02'1 1.3 28.4
2017-Nov-17 16:00S 15°37' E 178°01'0 0.0 28.4
2017-Nov-17 15:00S 15°37' E 178°01'0 0.0 28.4
2017-Nov-17 14:00S 15°37' E 178°01'2 0.3 28.5
2017-Nov-17 08:00S 15°38' E 178°01'0 0.0 28.5
2017-Nov-17 07:00S 15°38' E 178°01'1 0.8 28.5
2017-Nov-17 06:00S 15°39' E 178°01'2 1.8 28.6
2017-Nov-17 05:00S 15°40' E 178°03'0 0.0 28.6
2017-Nov-17 03:00S 15°40' E 178°03'0 0.0 28.6
2017-Nov-16 22:00S 15°40' E 178°03'1 0.6 28.5
2017-Nov-16 21:00S 15°39' E 178°03'1 1.3 28.5
2017-Nov-16 20:00S 15°38' E 178°04'0 0.0 28.5
2017-Nov-16 19:00S 15°38' E 178°04'0 0.0 28.5
2017-Nov-16 18:00S 15°38' E 178°04'0 0.0 28.5
2017-Nov-16 17:00S 15°38' E 178°04'2 2.1 28.5
2017-Nov-16 16:00S 15°37' E 178°06'0 0.0 28.5
2017-Nov-16 15:00S 15°37' E 178°06'5 0.9 28.5
2017-Nov-16 10:00S 15°37' E 178°11'1 1.3 28.6
2017-Nov-16 09:00S 15°37' E 178°12'1 1.3 28.6
2017-Nov-16 08:00S 15°37' E 178°13'0 0.0 28.6
2017-Nov-16 07:00S 15°37' E 178°13'2 2.3 28.7
2017-Nov-16 06:00S 15°37' E 178°16'0 0.0 28.8
2017-Nov-16 05:00S 15°37' E 178°16'1 0.8 28.9
2017-Nov-16 04:00S 15°37' E 178°15'0 0.0 28.9
2017-Nov-16 03:00S 15°37' E 178°15'5 4.7 28.9
2017-Nov-16 02:00S 15°35' E 178°19'3 0.7 28.8
2017-Nov-15 21:00S 15°37' E 178°22'1 0.6 28.6
2017-Nov-15 20:00S 15°37' E 178°22'2 1.8 28.6
2017-Nov-15 19:00S 15°37' E 178°24'2 1.8 28.6
2017-Nov-15 18:00S 15°37' E 178°26'0 0.0 28.7
2017-Nov-15 17:00S 15°37' E 178°26'0 0.0 28.7
2017-Nov-15 16:00S 15°37' E 178°26'1 1.3 28.7
2017-Nov-15 15:00S 15°37' E 178°25'6 6.5 28.7
2017-Nov-15 14:00S 15°38' E 178°31'1 0.1 28.7
2017-Nov-15 10:00S 15°38' E 178°32'0 0.0 28.8
2017-Nov-15 09:00S 15°38' E 178°32'1 0.6 28.8
2017-Nov-15 08:00S 15°38' E 178°31'0 0.0 28.8
2017-Nov-15 07:00S 15°38' E 178°31'2 2.4 28.8
2017-Nov-15 06:00S 15°37' E 178°34'0 0.0 28.9
2017-Nov-15 05:00S 15°37' E 178°34'1 0.6 28.9
2017-Nov-15 04:00S 15°37' E 178°34'1 1.3 28.9
2017-Nov-15 03:00S 15°37' E 178°35'0 0.0 29.0
2017-Nov-15 02:00S 15°37' E 178°35'0 0.0 29.1
2017-Nov-15 01:00S 15°37' E 178°35'5 1.3 29.1
2017-Nov-14 21:00S 15°35' E 178°41'1 0.6 28.6
2017-Nov-14 20:00S 15°35' E 178°41'1 0.6 28.6
2017-Nov-14 19:00S 15°35' E 178°41'2 2.3 28.6
2017-Nov-14 18:00S 15°35' E 178°44'1 1.3 28.6
2017-Nov-14 17:00S 15°34' E 178°43'3 1.4 28.6
2017-Nov-14 15:00S 15°34' E 178°46'1 0.7 28.7
2017-Nov-14 13:00S 15°33' E 178°46'1 0.4 28.7
2017-Nov-14 10:00S 15°32' E 178°47'1 1.3 28.8
2017-Nov-14 09:00S 15°31' E 178°48'0 0.0 28.8
2017-Nov-14 08:00S 15°31' E 178°48'3 2.9 28.9
2017-Nov-14 07:00S 15°29' E 178°50'0 0.0 28.9
2017-Nov-14 06:00S 15°29' E 178°50'0 0.0 28.9
2017-Nov-14 05:00S 15°29' E 178°50'2 1.9 28.9
2017-Nov-14 04:00S 15°28' E 178°51'0 0.0 28.9
2017-Nov-14 02:00S 15°28' E 178°51'6 1.6 28.9
2017-Nov-13 22:00S 15°24' E 178°56'1 0.4 29.0
2017-Nov-13 20:00S 15°23' E 178°56'2 1.7 28.9
2017-Nov-13 19:00S 15°23' E 178°58'3 2.9 28.9
2017-Nov-13 18:00S 15°23' E 179°01'0 0.0 28.9
2017-Nov-13 17:00S 15°23' E 179°01'0 0.0 28.9
2017-Nov-13 16:00S 15°23' E 179°01'0 0.0 29.0
2017-Nov-13 15:00S 15°23' E 179°01'   29.1
Track history (hours):
 
Tides and Currents Weather Stations Pressure Air Temp Water Temp Dewpoint Dewpoint Depression Visibility Wind Speed Wind Dir Waves Ship Positions

Aadnyj

Last reported at 2017-Nov-23 15:00 UTC. Time now 2017-Nov-23 18:12 UTC.
Position S 15°17' E 176°50'.

Length 56 m.

Type: Towing. MMSI: 413600286.

Water temperature 28.3 ° C

Date/timePositionNaut miles runAvg speedWind from/ knotsBaromVisibWave heightAir tempDewpointWater temp
2017-Nov-23 15:00S 15°17' E 176°50'1 0.3 28.3
2017-Nov-23 11:00S 15°17' E 176°52'0 0.0 28.3
2017-Nov-23 10:00S 15°17' E 176°52'0 0.0 28.3
2017-Nov-23 09:00S 15°17' E 176°52'3 3.0 28.3
2017-Nov-23 08:00S 15°17' E 176°55'0 0.0 28.3
2017-Nov-23 07:00S 15°17' E 176°55'1 0.6 28.3
2017-Nov-23 05:00S 15°17' E 176°53'3 2.5 28.3
2017-Nov-23 04:00S 15°19' E 176°55'0 0.0 28.3
2017-Nov-23 03:00S 15°19' E 176°55'0 0.0 28.3
2017-Nov-23 02:00S 15°19' E 176°55'0 0.0 28.3
2017-Nov-23 01:00S 15°19' E 176°55'3 0.8 28.3
2017-Nov-22 21:00S 15°22' E 176°58'1 0.6 28.2
2017-Nov-22 20:00S 15°22' E 176°57'0 0.0 28.3
2017-Nov-22 19:00S 15°22' E 176°57'2 1.8 28.3
2017-Nov-22 18:00S 15°21' E 176°59'1 0.8 28.3
2017-Nov-22 17:00S 15°20' E 176°58'1 0.8 28.3
2017-Nov-22 16:00S 15°21' E 176°59'1 1.2 28.3
2017-Nov-22 15:00S 15°20' E 176°59'0 0.0 28.3
2017-Nov-22 14:00S 15°20' E 176°59'0 0.0 28.3
2017-Nov-22 13:00S 15°20' E 176°59'2 0.6 28.3
2017-Nov-22 10:00S 15°20' E 177°01'4 3.8 28.3
2017-Nov-22 09:00S 15°17' E 177°03'0 0.0 28.3
2017-Nov-22 08:00S 15°17' E 177°03'0 0.0 28.3
2017-Nov-22 07:00S 15°17' E 177°03'0 0.0 28.3
2017-Nov-22 06:00S 15°17' E 177°03'0 0.0 28.3
2017-Nov-22 05:00S 15°17' E 177°03'2 1.8 28.4
2017-Nov-22 04:00S 15°17' E 177°05'0 0.0 28.4
2017-Nov-22 03:00S 15°17' E 177°05'0 0.0 28.3
2017-Nov-22 02:00S 15°17' E 177°05'4 0.9 28.3
2017-Nov-21 22:00S 15°17' E 177°08'2 2.3 28.4
2017-Nov-21 21:00S 15°17' E 177°11'1 0.6 28.5
2017-Nov-21 20:00S 15°17' E 177°11'0 0.0 28.6
2017-Nov-21 19:00S 15°17' E 177°11'3 1.6 28.6
2017-Nov-21 17:00S 15°16' E 177°14'0 0.0 28.7
2017-Nov-21 16:00S 15°16' E 177°14'1 0.3 28.8
2017-Nov-21 14:00S 15°16' E 177°14'0 0.0 28.8
2017-Nov-21 13:00S 15°16' E 177°14'3 1.0 28.8
2017-Nov-21 10:00S 15°15' E 177°17'4 4.1 28.7
2017-Nov-21 09:00S 15°16' E 177°21'0 0.0 28.7
2017-Nov-21 07:00S 15°16' E 177°21'0 0.0 28.7
2017-Nov-21 06:00S 15°16' E 177°21'1 1.3 28.8
2017-Nov-21 05:00S 15°15' E 177°20'1 0.8 28.8
2017-Nov-21 04:00S 15°16' E 177°19'1 1.3 28.8
2017-Nov-21 03:00S 15°16' E 177°20'3 0.5 28.8
2017-Nov-20 21:00S 15°16' E 177°23'1 0.7 28.7
2017-Nov-20 19:00S 15°16' E 177°25'1 0.8 28.7
2017-Nov-20 18:00S 15°16' E 177°25'1 0.7 28.7
2017-Nov-20 16:00S 15°14' E 177°26'0 0.0 28.7
2017-Nov-20 15:00S 15°14' E 177°26'0 0.0 28.7
2017-Nov-20 14:00S 15°14' E 177°26'0 0.0 28.8
2017-Nov-20 13:00S 15°14' E 177°26'4 1.8 28.9
2017-Nov-20 11:00S 15°13' E 177°29'0 0.0 28.9
2017-Nov-20 10:00S 15°13' E 177°29'1 1.3 28.9
2017-Nov-20 09:00S 15°13' E 177°31'3 3.1 28.8
2017-Nov-20 08:00S 15°11' E 177°34'0 0.0 28.8
2017-Nov-20 07:00S 15°11' E 177°34'0 0.0 28.8
2017-Nov-20 06:00S 15°11' E 177°34'1 1.3 29.0
2017-Nov-20 05:00S 15°11' E 177°35'2 1.7 29.1
2017-Nov-20 04:00S 15°11' E 177°37'1 0.8 29.0
2017-Nov-20 03:00S 15°11' E 177°36'0 0.0 29.6
2017-Nov-20 02:00S 15°11' E 177°36'7 1.7 29.4
2017-Nov-19 22:00S 15°11' E 177°43'1 1.2 28.7
2017-Nov-19 21:00S 15°11' E 177°44'0 0.0 28.6
2017-Nov-19 20:00S 15°11' E 177°44'5 4.6 28.6
2017-Nov-19 19:00S 15°14' E 177°48'0 0.0 28.6
2017-Nov-19 18:00S 15°14' E 177°48'2 0.8 28.6
2017-Nov-19 16:00S 15°16' E 177°49'0 0.0 28.7
2017-Nov-19 14:00S 15°16' E 177°49'5 1.3 28.7
2017-Nov-19 10:00S 15°20' E 177°52'1 0.6 28.8
2017-Nov-19 09:00S 15°20' E 177°52'2 1.7 28.8
2017-Nov-19 08:00S 15°22' E 177°51'0 0.0 28.9
2017-Nov-19 07:00S 15°22' E 177°51'0 0.0 29.1
2017-Nov-19 06:00S 15°22' E 177°51'1 1.3 28.9
2017-Nov-19 05:00S 15°23' E 177°52'0 0.0 29.1
2017-Nov-19 04:00S 15°23' E 177°52'1 0.6 29.2
2017-Nov-19 03:00S 15°23' E 177°51'6 1.1 29.4
2017-Nov-18 22:00S 15°26' E 177°56'1 0.4 28.9
2017-Nov-18 20:00S 15°26' E 177°55'2 1.9 28.6
2017-Nov-18 19:00S 15°28' E 177°56'1 1.3 28.6
2017-Nov-18 18:00S 15°28' E 177°57'1 0.8 28.6
2017-Nov-18 17:00S 15°28' E 177°58'0 0.0 28.7
2017-Nov-18 16:00S 15°28' E 177°58'1 0.7 28.7
2017-Nov-18 14:00S 15°29' E 177°58'3 0.9 28.7
2017-Nov-18 10:00S 15°32' E 178°00'1 1.2 28.6
2017-Nov-18 09:00S 15°32' E 178°01'1 1.2 28.6
2017-Nov-18 08:00S 15°34' E 178°01'0 0.0 28.6
2017-Nov-18 07:00S 15°34' E 178°01'1 0.6 28.6
2017-Nov-18 06:00S 15°33' E 178°01'1 1.2 28.7
2017-Nov-18 05:00S 15°33' E 178°02'1 0.6 28.8
2017-Nov-18 04:00S 15°34' E 178°02'1 1.2 29.0
2017-Nov-18 03:00S 15°34' E 178°01'2 0.5 29.6
2017-Nov-17 22:00S 15°36' E 178°02'1 0.7 28.6
2017-Nov-17 20:00S 15°37' E 178°02'0 0.0 28.5
2017-Nov-17 19:00S 15°37' E 178°02'1 0.6 28.4
2017-Nov-17 18:00S 15°37' E 178°02'0 0.0 28.4
2017-Nov-17 17:00S 15°37' E 178°02'1 1.3 28.4
2017-Nov-17 16:00S 15°37' E 178°01'0 0.0 28.4
2017-Nov-17 15:00S 15°37' E 178°01'0 0.0 28.4
2017-Nov-17 14:00S 15°37' E 178°01'2 0.3 28.5
2017-Nov-17 08:00S 15°38' E 178°01'0 0.0 28.5
2017-Nov-17 07:00S 15°38' E 178°01'1 0.8 28.5
2017-Nov-17 06:00S 15°39' E 178°01'2 1.8 28.6
2017-Nov-17 05:00S 15°40' E 178°03'0 0.0 28.6
2017-Nov-17 03:00S 15°40' E 178°03'0 0.0 28.6
2017-Nov-16 22:00S 15°40' E 178°03'1 0.6 28.5
2017-Nov-16 21:00S 15°39' E 178°03'1 1.3 28.5
2017-Nov-16 20:00S 15°38' E 178°04'0 0.0 28.5
2017-Nov-16 19:00S 15°38' E 178°04'0 0.0 28.5
2017-Nov-16 18:00S 15°38' E 178°04'0 0.0 28.5
2017-Nov-16 17:00S 15°38' E 178°04'2 2.1 28.5
2017-Nov-16 16:00S 15°37' E 178°06'0 0.0 28.5
2017-Nov-16 15:00S 15°37' E 178°06'5 0.9 28.5
2017-Nov-16 10:00S 15°37' E 178°11'1 1.3 28.6
2017-Nov-16 09:00S 15°37' E 178°12'1 1.3 28.6
2017-Nov-16 08:00S 15°37' E 178°13'0 0.0 28.6
2017-Nov-16 07:00S 15°37' E 178°13'2 2.3 28.7
2017-Nov-16 06:00S 15°37' E 178°16'0 0.0 28.8
2017-Nov-16 05:00S 15°37' E 178°16'1 0.8 28.9
2017-Nov-16 04:00S 15°37' E 178°15'0 0.0 28.9
2017-Nov-16 03:00S 15°37' E 178°15'5 4.7 28.9
2017-Nov-16 02:00S 15°35' E 178°19'3 0.7 28.8
2017-Nov-15 21:00S 15°37' E 178°22'1 0.6 28.6
2017-Nov-15 20:00S 15°37' E 178°22'2 1.8 28.6
2017-Nov-15 19:00S 15°37' E 178°24'2 1.8 28.6
2017-Nov-15 18:00S 15°37' E 178°26'0 0.0 28.7
2017-Nov-15 17:00S 15°37' E 178°26'0 0.0 28.7
2017-Nov-15 16:00S 15°37' E 178°26'1 1.3 28.7
2017-Nov-15 15:00S 15°37' E 178°25'6 6.5 28.7
2017-Nov-15 14:00S 15°38' E 178°31'1 0.1 28.7
2017-Nov-15 10:00S 15°38' E 178°32'0 0.0 28.8
2017-Nov-15 09:00S 15°38' E 178°32'1 0.6 28.8
2017-Nov-15 08:00S 15°38' E 178°31'0 0.0 28.8
2017-Nov-15 07:00S 15°38' E 178°31'2 2.4 28.8
2017-Nov-15 06:00S 15°37' E 178°34'0 0.0 28.9
2017-Nov-15 05:00S 15°37' E 178°34'1 0.6 28.9
2017-Nov-15 04:00S 15°37' E 178°34'1 1.3 28.9
2017-Nov-15 03:00S 15°37' E 178°35'0 0.0 29.0
2017-Nov-15 02:00S 15°37' E 178°35'0 0.0 29.1
2017-Nov-15 01:00S 15°37' E 178°35'5 1.3 29.1
2017-Nov-14 21:00S 15°35' E 178°41'1 0.6 28.6
2017-Nov-14 20:00S 15°35' E 178°41'1 0.6 28.6
2017-Nov-14 19:00S 15°35' E 178°41'2 2.3 28.6
2017-Nov-14 18:00S 15°35' E 178°44'1 1.3 28.6
2017-Nov-14 17:00S 15°34' E 178°43'3 1.4 28.6
2017-Nov-14 15:00S 15°34' E 178°46'1 0.7 28.7
2017-Nov-14 13:00S 15°33' E 178°46'1 0.4 28.7
2017-Nov-14 10:00S 15°32' E 178°47'1 1.3 28.8
2017-Nov-14 09:00S 15°31' E 178°48'0 0.0 28.8
2017-Nov-14 08:00S 15°31' E 178°48'3 2.9 28.9
2017-Nov-14 07:00S 15°29' E 178°50'0 0.0 28.9
2017-Nov-14 06:00S 15°29' E 178°50'0 0.0 28.9
2017-Nov-14 05:00S 15°29' E 178°50'2 1.9 28.9
2017-Nov-14 04:00S 15°28' E 178°51'0 0.0 28.9
2017-Nov-14 02:00S 15°28' E 178°51'6 1.6 28.9
2017-Nov-13 22:00S 15°24' E 178°56'1 0.4 29.0
2017-Nov-13 20:00S 15°23' E 178°56'2 1.7 28.9
2017-Nov-13 19:00S 15°23' E 178°58'3 2.9 28.9
2017-Nov-13 18:00S 15°23' E 179°01'0 0.0 28.9
2017-Nov-13 17:00S 15°23' E 179°01'0 0.0 28.9
2017-Nov-13 16:00S 15°23' E 179°01'0 0.0 29.0
2017-Nov-13 15:00S 15°23' E 179°01'   29.1

Dump ship's entire track history